Time;durP1;ratioP1;P1;durP2;ratioP2;P2;SDS_P1;SDS_P2;PMS_P1;PMS_P2;Temp;Humidity;BMP_temperature;BMP_pressure;BME280_temperature;BME280_humidity;BME280_pressure;Samples;Min_cycle;Max_cycle;Signal;HPM_P1;HPM_P2
2021/01/17 00:01:44;;;;;;;23.27;3.47;;;;;;;8.00;64.90;99768.44;4980825;28;20121;-78
2021/01/17 00:04:11;;;;;;;27.95;4.30;;;;;;;7.83;65.09;99767.47;5000197;28;20072;-79
2021/01/17 00:06:38;;;;;;;35.25;4.63;;;;;;;7.67;66.16;99758.75;4990954;28;20445;-78
2021/01/17 00:09:04;;;;;;;28.90;3.80;;;;;;;7.76;65.71;99764.00;4985667;28;20050;-80
2021/01/17 00:11:31;;;;;;;29.58;4.50;;;;;;;7.87;65.20;99767.47;5001113;28;20050;-78
2021/01/17 00:13:57;;;;;;;29.13;4.40;;;;;;;7.87;65.43;99762.28;5001824;28;20109;-78
2021/01/17 00:16:24;;;;;;;34.45;4.75;;;;;;;8.08;65.05;99765.84;5004584;28;20058;-79
2021/01/17 00:18:53;;;;;;;24.13;4.07;;;;;;;7.82;65.82;99763.13;4997792;28;20054;-79
2021/01/17 00:21:19;;;;;;;23.38;3.60;;;;;;;7.84;66.28;99758.81;4968243;28;20104;-79
2021/01/17 00:23:46;;;;;;;24.67;4.00;;;;;;;7.88;65.58;99760.56;4989264;28;20077;-79
2021/01/17 00:26:12;;;;;;;34.58;3.70;;;;;;;7.91;65.76;99764.91;4990046;28;20054;-83
2021/01/17 00:28:39;;;;;;;17.70;3.20;;;;;;;7.60;67.06;99759.56;4963012;28;20052;-83
2021/01/17 00:31:06;;;;;;;22.95;3.95;;;;;;;7.49;67.33;99752.53;4984589;28;20073;-83
2021/01/17 00:33:32;;;;;;;28.50;3.63;;;;;;;7.84;66.96;99759.69;4995722;28;20050;-81
2021/01/17 00:35:59;;;;;;;40.08;4.95;;;;;;;7.69;67.14;99750.94;4982079;28;20053;-84
2021/01/17 00:38:27;;;;;;;24.23;4.65;;;;;;;8.03;66.80;99754.53;4995450;28;20046;-84
2021/01/17 00:40:53;;;;;;;23.10;3.58;;;;;;;7.76;66.99;99748.38;4986700;28;20058;-83
2021/01/17 00:43:19;;;;;;;19.45;3.75;;;;;;;7.91;66.68;99741.50;5004231;28;20092;-83
2021/01/17 00:45:46;;;;;;;20.63;4.05;;;;;;;7.78;67.24;99749.25;5002066;28;20532;-84
2021/01/17 00:48:14;;;;;;;29.65;3.42;;;;;;;7.64;67.91;99743.09;4997974;28;20362;-83
2021/01/17 00:50:40;;;;;;;26.98;4.18;;;;;;;7.68;67.78;99757.84;4990644;28;20065;-83
2021/01/17 00:53:07;;;;;;;32.22;4.10;;;;;;;8.18;66.71;99763.28;4988865;28;20070;-83
2021/01/17 00:55:33;;;;;;;34.05;5.13;;;;;;;7.74;67.67;99764.81;4996235;28;20042;-82
2021/01/17 00:58:00;;;;;;;29.70;5.75;;;;;;;8.37;66.50;99776.38;4986526;28;20141;-83
2021/01/17 01:00:26;;;;;;;28.17;4.20;;;;;;;7.75;69.32;99766.56;4985637;28;20448;-84
2021/01/17 01:02:54;;;;;;;24.85;4.90;;;;;;;7.98;68.85;99764.94;4992779;28;20074;-83
2021/01/17 01:05:24;;;;;;;30.95;4.78;;;;;;;8.04;69.39;99771.91;5001266;28;20069;-84
2021/01/17 01:07:52;;;;;;;23.83;3.75;;;;;;;8.26;68.26;99774.56;5007171;28;20065;-84
2021/01/17 01:10:20;;;;;;;29.17;4.18;;;;;;;8.19;68.84;99780.63;5007970;28;20045;-85
2021/01/17 01:12:52;;;;;;;35.50;5.32;;;;;;;8.35;68.58;99791.09;5002566;28;20054;-85
2021/01/17 01:15:19;;;;;;;23.90;3.22;;;;;;;7.61;70.80;99795.09;5008504;28;20546;-84
2021/01/17 01:17:47;;;;;;;21.67;3.15;;;;;;;7.62;69.75;99772.56;4993269;28;20100;-84
2021/01/17 01:20:15;;;;;;;14.65;2.15;;;;;;;7.97;68.24;99785.72;4973492;28;20104;-84
2021/01/17 01:22:42;;;;;;;19.17;2.70;;;;;;;8.37;66.84;99790.25;4980202;28;20054;-84
2021/01/17 01:25:10;;;;;;;15.55;2.30;;;;;;;7.28;70.74;99789.69;4993923;28;20058;-84
2021/01/17 01:27:36;;;;;;;14.98;2.67;;;;;;;7.75;69.23;99798.66;4994135;28;20137;-84
2021/01/17 01:30:04;;;;;;;19.58;2.92;;;;;;;7.91;68.58;99794.41;4995977;28;20048;-84
2021/01/17 01:32:31;;;;;;;18.85;3.05;;;;;;;8.00;67.74;99791.84;5003210;28;20057;-84
2021/01/17 01:34:57;;;;;;;20.58;3.95;;;;;;;7.90;67.65;99790.06;4998409;28;20053;-85
2021/01/17 01:37:24;;;;;;;24.30;4.85;;;;;;;8.19;67.29;99780.63;4991474;28;20160;-84
2021/01/17 01:39:50;;;;;;;34.95;4.68;;;;;;;7.94;67.70;99778.78;5000142;28;20103;-84
2021/01/17 01:42:17;;;;;;;21.35;4.13;;;;;;;7.97;67.95;99788.34;4980274;28;20418;-84
2021/01/17 01:44:43;;;;;;;22.27;3.13;;;;;;;7.53;69.07;99790.72;4971827;28;20556;-84
2021/01/17 01:47:15;;;;;;;26.73;3.85;;;;;;;8.11;67.87;99789.25;4992584;28;20134;-84
2021/01/17 01:49:42;;;;;;;22.95;3.83;;;;;;;7.82;68.46;99778.72;4981441;28;20144;-84
2021/01/17 01:52:13;;;;;;;21.15;3.25;;;;;;;7.96;67.77;99792.66;5004701;28;20065;-85
2021/01/17 01:54:40;;;;;;;30.38;3.90;;;;;;;7.80;68.37;99783.06;5011933;28;21101;-85
2021/01/17 01:57:11;;;;;;;25.17;3.25;;;;;;;7.61;69.47;99779.50;5016297;28;20462;-86
2021/01/17 01:59:38;;;;;;;18.58;3.65;;;;;;;7.59;68.11;99778.59;4998391;28;20046;-84
2021/01/17 02:02:09;;;;;;;22.23;2.72;;;;;;;7.41;69.25;99783.69;5021835;28;20042;-84
2021/01/17 02:04:39;;;;;;;20.97;2.90;;;;;;;7.63;68.90;99782.97;4998867;28;20141;-83
2021/01/17 02:07:29;;;;;;;33.25;3.72;;;;;;;7.58;68.61;99778.63;4982856;28;20841;-84
2021/01/17 02:09:56;;;;;;;23.48;3.70;;;;;;;7.64;68.44;99776.91;5016472;28;20056;-83
2021/01/17 02:13:14;;;;;;;25.52;3.45;;;;;;;7.86;68.41;99783.09;4997147;28;20056;-83
2021/01/17 02:15:41;;;;;;;25.80;3.70;;;;;;;7.93;67.92;99792.66;4986502;28;20402;-81
2021/01/17 02:18:10;;;;;;;25.27;3.58;;;;;;;7.84;67.59;99790.00;5006454;28;20393;-86
2021/01/17 02:20:39;;;;;;;28.65;3.72;;;;;;;7.59;68.17;99799.41;4996028;28;20520;-83
2021/01/17 02:23:16;;;;;;;27.25;4.70;;;;;;;7.56;68.15;99791.59;5001568;28;20058;-83
2021/01/17 02:25:43;;;;;;;33.53;4.30;;;;;;;7.58;67.70;99796.81;5004450;28;20497;-84
2021/01/17 02:28:13;;;;;;;23.10;4.55;;;;;;;7.31;69.12;99800.97;5002375;28;20422;-85
2021/01/17 02:30:47;;;;;;;25.10;4.32;;;;;;;7.47;68.38;99801.94;4980489;28;20556;-85
2021/01/17 02:33:20;;;;;;;24.40;3.55;;;;;;;7.44;67.55;99812.28;4981566;28;20058;-85
2021/01/17 02:35:47;;;;;;;20.05;2.90;;;;;;;7.67;67.38;99807.28;4990515;28;20077;-83
2021/01/17 02:38:37;;;;;;;23.67;3.20;;;;;;;7.55;67.10;99822.78;4981605;28;20142;-85
2021/01/17 02:41:04;;;;;;;19.48;3.35;;;;;;;7.87;66.21;99832.50;4989123;28;20050;-85
2021/01/17 02:43:31;;;;;;;23.08;4.63;;;;;;;8.09;64.91;99827.44;4997639;28;20069;-84
2021/01/17 02:45:58;;;;;;;29.00;3.42;;;;;;;7.90;66.19;99829.06;4987620;28;20482;-84
2021/01/17 02:48:24;;;;;;;18.27;2.60;;;;;;;8.50;63.98;99830.22;4988017;28;20057;-85
2021/01/17 02:50:50;;;;;;;22.88;3.38;;;;;;;7.78;66.05;99831.59;4980247;28;20055;-84
2021/01/17 02:53:29;;;;;;;25.92;4.07;;;;;;;7.48;66.79;99831.41;4990617;28;20193;-84
2021/01/17 02:55:59;;;;;;;26.60;3.83;;;;;;;7.75;66.19;99848.06;4982354;28;20053;-85
2021/01/17 02:58:27;;;;;;;20.35;2.60;;;;;;;7.13;67.96;99837.19;4981634;28;20052;-84
2021/01/17 03:00:56;;;;;;;16.13;2.08;;;;;;;7.53;66.28;99835.75;5000429;28;20042;-84
2021/01/17 03:03:31;;;;;;;17.45;2.47;;;;;;;7.09;68.07;99829.38;4981151;28;20086;-84
2021/01/17 03:06:00;;;;;;;13.93;2.42;;;;;;;7.20;67.29;99832.91;4983418;28;20056;-84
2021/01/17 03:08:27;;;;;;;19.27;2.35;;;;;;;7.08;67.47;99833.69;4994846;28;20042;-84
2021/01/17 03:10:54;;;;;;;14.55;1.60;;;;;;;7.33;66.25;99840.84;5000035;28;20064;-84
2021/01/17 03:13:24;;;;;;;12.82;1.48;;;;;;;6.92;67.49;99831.78;5000545;28;20037;-84
2021/01/17 03:15:51;;;;;;;12.40;1.85;;;;;;;6.83;66.67;99818.72;4998287;28;20042;-84
2021/01/17 03:18:18;;;;;;;14.70;1.80;;;;;;;7.01;66.41;99837.06;4984737;28;20659;-83
2021/01/17 03:20:44;;;;;;;16.27;1.92;;;;;;;6.90;67.00;99846.50;4997382;28;20112;-84
2021/01/17 03:23:11;;;;;;;17.65;1.92;;;;;;;6.97;66.61;99856.09;4998924;28;20049;-83
2021/01/17 03:25:38;;;;;;;13.63;1.85;;;;;;;7.14;66.37;99848.47;4985017;28;20413;-82
2021/01/17 03:28:04;;;;;;;16.00;2.75;;;;;;;7.40;65.52;99853.00;5004259;28;20427;-85
2021/01/17 03:30:30;;;;;;;11.85;1.50;;;;;;;7.03;66.79;99847.47;5000982;28;20119;-84
2021/01/17 03:32:57;;;;;;;17.77;2.55;;;;;;;6.63;67.99;99847.06;5000606;28;20054;-83
2021/01/17 03:35:23;;;;;;;17.38;2.88;;;;;;;6.87;68.38;99833.47;4986144;28;20055;-84
2021/01/17 03:37:50;;;;;;;19.65;2.53;;;;;;;6.61;68.57;99833.22;4982316;28;20409;-83
2021/01/17 03:40:16;;;;;;;14.38;2.45;;;;;;;7.03;67.40;99852.69;4995197;28;20501;-84
2021/01/17 03:42:42;;;;;;;16.77;3.05;;;;;;;7.04;66.98;99849.22;5003366;28;20125;-84
2021/01/17 03:45:09;;;;;;;16.30;2.45;;;;;;;7.01;66.80;99855.25;5001481;28;20046;-84
2021/01/17 03:47:35;;;;;;;28.58;3.17;;;;;;;6.73;68.42;99850.63;5002817;28;20077;-83
2021/01/17 03:50:03;;;;;;;11.13;1.75;;;;;;;6.97;67.41;99862.16;4977300;28;20045;-84
2021/01/17 03:52:29;;;;;;;14.40;2.17;;;;;;;6.30;69.90;99844.97;4985553;28;20073;-83
2021/01/17 03:54:55;;;;;;;16.90;1.88;;;;;;;6.73;68.24;99850.63;4970341;28;20060;-83
2021/01/17 03:57:22;;;;;;;20.50;2.88;;;;;;;7.14;67.48;99856.25;4991326;28;20123;-84
2021/01/17 03:59:48;;;;;;;19.20;2.83;;;;;;;7.23;66.69;99866.72;4989529;28;20496;-84
2021/01/17 04:02:14;;;;;;;21.17;3.03;;;;;;;6.58;68.07;99866.91;4981430;28;20137;-83
2021/01/17 04:04:41;;;;;;;16.27;2.90;;;;;;;6.84;67.96;99875.00;4980081;28;20501;-82
2021/01/17 04:07:07;;;;;;;27.15;3.15;;;;;;;6.55;67.73;99853.91;4975351;28;20513;-84
2021/01/17 04:09:34;;;;;;;13.20;2.45;;;;;;;6.91;67.58;99861.22;4981404;28;20041;-83
2021/01/17 04:12:00;;;;;;;22.35;2.75;;;;;;;6.91;66.87;99845.63;4995523;28;20130;-84
2021/01/17 04:14:26;;;;;;;11.38;2.22;;;;;;;6.29;69.22;99852.72;5005933;28;20046;-84
2021/01/17 04:16:53;;;;;;;19.08;2.58;;;;;;;6.56;68.83;99848.75;4985791;28;20066;-84
2021/01/17 04:19:20;;;;;;;22.67;2.67;;;;;;;6.52;68.57;99846.94;5003370;28;20046;-84
2021/01/17 04:21:46;;;;;;;22.30;2.67;;;;;;;6.53;68.56;99847.81;5002044;28;20057;-84
2021/01/17 04:24:13;;;;;;;15.52;2.10;;;;;;;6.78;68.17;99842.06;5005625;28;20049;-83
2021/01/17 04:26:39;;;;;;;17.58;2.67;;;;;;;6.38;68.88;99835.53;5002639;28;20054;-84
2021/01/17 04:29:06;;;;;;;18.13;2.50;;;;;;;6.77;67.50;99844.63;4988564;28;20045;-84
2021/01/17 04:31:45;;;;;;;21.52;2.53;;;;;;;7.10;66.30;99849.28;4989266;28;20149;-82
2021/01/17 04:34:11;;;;;;;9.75;2.00;;;;;;;6.77;66.98;99858.47;4988876;28;20112;-83
2021/01/17 04:36:38;;;;;;;9.63;1.75;;;;;;;6.50;67.68;99855.59;4999417;28;20046;-84
2021/01/17 04:39:05;;;;;;;9.52;1.88;;;;;;;6.68;67.66;99853.19;5031516;28;20074;-84
2021/01/17 04:41:34;;;;;;;16.05;2.05;;;;;;;7.12;66.24;99870.94;4986585;28;20367;-83
2021/01/17 04:44:04;;;;;;;14.82;2.50;;;;;;;6.75;66.81;99865.41;4996289;28;20555;-83
2021/01/17 04:46:30;;;;;;;9.38;1.50;;;;;;;6.53;67.53;99879.84;4976450;28;20077;-83
2021/01/17 04:49:02;;;;;;;9.75;1.92;;;;;;;6.74;66.64;99894.81;5005231;28;20049;-84
2021/01/17 04:51:29;;;;;;;9.38;1.65;;;;;;;6.55;67.24;99903.22;5004643;28;20069;-83
2021/01/17 04:54:00;;;;;;;12.98;1.50;;;;;;;7.01;65.44;99909.78;4999657;28;20050;-83
2021/01/17 04:56:31;;;;;;;14.45;2.75;;;;;;;7.07;65.28;99903.78;4996503;28;20054;-83
2021/01/17 04:59:13;;;;;;;19.65;2.10;;;;;;;6.85;66.13;99910.50;4999590;28;20072;-84
2021/01/17 05:01:48;;;;;;;9.23;1.50;;;;;;;6.47;67.50;99913.53;5004952;28;20073;-83
2021/01/17 05:04:46;;;;;;;12.25;1.77;;;;;;;6.80;66.09;99918.25;4973475;28;20413;-84
2021/01/17 05:07:21;;;;;;;11.55;1.40;;;;;;;6.38;67.76;99913.38;4997062;28;20384;-82
2021/01/17 05:10:02;;;;;;;13.80;2.78;;;;;;;6.37;68.12;99923.78;5003543;28;20046;-84
2021/01/17 05:12:36;;;;;;;13.57;2.03;;;;;;;6.32;68.31;99923.72;5000654;28;20516;-83
2021/01/17 05:15:04;;;;;;;9.55;1.75;;;;;;;6.37;67.98;99929.84;4988878;28;20045;-83
2021/01/17 05:17:37;;;;;;;12.55;1.85;;;;;;;6.26;68.93;99930.53;4991833;28;20416;-83
2021/01/17 05:20:05;;;;;;;19.13;1.70;;;;;;;6.35;68.79;99917.69;4982593;28;20564;-84
2021/01/17 05:22:32;;;;;;;8.77;1.50;;;;;;;6.57;68.24;99930.06;4987706;28;20054;-83
2021/01/17 05:24:58;;;;;;;9.50;1.60;;;;;;;6.44;68.13;99931.66;4996457;28;20057;-83
2021/01/17 05:27:25;;;;;;;9.88;1.63;;;;;;;6.87;67.23;99938.22;4984871;28;20133;-83
2021/01/17 05:29:51;;;;;;;15.48;2.58;;;;;;;6.53;68.01;99938.66;4981135;28;20343;-83
2021/01/17 05:32:19;;;;;;;10.55;1.65;;;;;;;6.57;68.19;99950.81;4979852;28;20055;-83
2021/01/17 05:34:45;;;;;;;10.30;1.58;;;;;;;6.38;68.89;99935.91;4981827;28;20053;-84
2021/01/17 05:37:15;;;;;;;5.82;1.30;;;;;;;6.24;68.90;99937.41;4994983;28;20093;-83
2021/01/17 05:39:54;;;;;;;11.82;2.13;;;;;;;6.61;68.11;99944.84;5002686;28;20057;-83
2021/01/17 05:42:29;;;;;;;12.25;1.70;;;;;;;6.31;69.04;99934.94;5001583;28;20099;-83
2021/01/17 05:45:19;;;;;;;10.18;1.80;;;;;;;6.32;69.44;99941.00;4988946;28;20480;-83
2021/01/17 05:47:52;;;;;;;14.82;1.80;;;;;;;6.46;68.51;99940.34;4985262;28;20054;-83
2021/01/17 05:50:20;;;;;;;9.48;1.85;;;;;;;6.35;68.34;99944.50;4999381;28;20046;-84
2021/01/17 05:53:08;;;;;;;19.73;1.95;;;;;;;6.63;67.56;99942.25;5003663;28;20400;-83
2021/01/17 05:55:44;;;;;;;11.48;3.17;;;;;;;6.66;67.22;99956.16;4996622;28;20069;-84
2021/01/17 05:58:25;;;;;;;13.25;1.67;;;;;;;6.60;67.58;99956.06;5004769;28;20049;-83
2021/01/17 06:00:56;;;;;;;9.05;1.50;;;;;;;6.58;67.35;99953.44;4975566;28;20042;-84
2021/01/17 06:03:26;;;;;;;15.27;2.05;;;;;;;6.60;67.84;99950.88;5030371;28;20413;-84
2021/01/17 06:06:00;;;;;;;9.90;1.85;;;;;;;6.32;68.17;99941.88;5001219;28;24340;-84
2021/01/17 06:08:27;;;;;;;8.30;1.42;;;;;;;6.51;67.49;99948.19;5016081;28;20461;-84
2021/01/17 06:10:56;;;;;;;17.95;2.40;;;;;;;6.27;68.66;99958.22;4984398;28;20498;-83
2021/01/17 06:13:24;;;;;;;13.23;2.95;;;;;;;6.34;68.50;99963.50;4982231;28;20054;-84
2021/01/17 06:15:52;;;;;;;9.27;1.70;;;;;;;6.09;69.54;99964.03;4982027;28;20078;-83
2021/01/17 06:18:22;;;;;;;7.90;1.17;;;;;;;5.90;70.67;99962.00;4985429;28;20049;-82
2021/01/17 06:20:58;;;;;;;12.88;1.50;;;;;;;6.30;69.50;99964.31;4983043;28;20386;-83
2021/01/17 06:23:24;;;;;;;10.25;1.95;;;;;;;6.39;69.19;99973.94;4982808;28;20054;-82
2021/01/17 06:26:02;;;;;;;13.77;2.50;;;;;;;6.33;68.97;99976.47;4988816;28;20509;-83
2021/01/17 06:28:39;;;;;;;15.23;2.00;;;;;;;6.09;69.18;99983.03;5005027;28;20112;-83
2021/01/17 06:31:07;;;;;;;8.32;1.70;;;;;;;6.29;69.23;100000.63;5000684;28;20042;-83
2021/01/17 06:33:35;;;;;;;6.75;1.40;;;;;;;6.14;69.25;100009.91;5000286;28;20152;-83
2021/01/17 06:36:14;;;;;;;15.10;1.85;;;;;;;6.30;69.26;100025.72;5000930;28;20084;-83
2021/01/17 06:38:42;;;;;;;14.00;1.75;;;;;;;6.21;68.61;100030.78;4999561;28;20130;-83
2021/01/17 06:41:11;;;;;;;16.27;1.90;;;;;;;5.93;69.24;100035.53;4999841;28;20068;-83
2021/01/17 06:43:42;;;;;;;15.25;1.88;;;;;;;6.47;67.77;100038.09;4998351;28;20050;-83
2021/01/17 06:46:13;;;;;;;20.40;2.10;;;;;;;6.38;67.94;100037.09;5000984;28;20045;-83
2021/01/17 06:48:40;;;;;;;15.80;2.15;;;;;;;6.14;68.83;100043.63;5000953;28;20125;-83
2021/01/17 06:51:20;;;;;;;13.18;2.47;;;;;;;6.42;67.68;100044.94;5002285;28;20443;-83
2021/01/17 06:53:54;;;;;;;13.68;1.88;;;;;;;6.42;67.45;100049.25;4997408;28;20065;-83
2021/01/17 06:56:21;;;;;;;17.67;2.22;;;;;;;6.16;68.21;100054.03;5001584;28;20112;-83
2021/01/17 06:58:51;;;;;;;16.63;1.90;;;;;;;5.93;69.00;100060.56;4996870;28;20458;-83
2021/01/17 07:01:27;;;;;;;17.65;3.50;;;;;;;6.34;67.99;100054.31;4991048;28;20093;-84
2021/01/17 07:03:56;;;;;;;18.27;2.85;;;;;;;6.31;67.77;100059.47;4963486;28;20501;-83
2021/01/17 07:06:26;;;;;;;17.20;2.70;;;;;;;5.94;68.59;100051.97;5004636;28;20389;-83
2021/01/17 07:09:12;;;;;;;13.38;1.83;;;;;;;6.55;66.88;100059.84;4982063;28;20124;-83
2021/01/17 07:11:54;;;;;;;19.88;2.20;;;;;;;6.41;66.90;100052.69;5000809;28;20050;-83
2021/01/17 07:14:29;;;;;;;10.70;2.70;;;;;;;6.41;66.51;100050.09;5000911;28;20044;-83
2021/01/17 07:16:59;;;;;;;15.23;2.30;;;;;;;6.09;68.16;100047.88;5003252;28;20044;-83
2021/01/17 07:19:32;;;;;;;10.40;1.83;;;;;;;6.06;67.75;100028.81;5001443;28;20058;-83
2021/01/17 07:22:04;;;;;;;14.73;2.00;;;;;;;6.24;67.48;100047.25;4995493;28;20050;-83
2021/01/17 07:24:32;;;;;;;14.50;1.90;;;;;;;6.35;67.02;100042.22;4997196;28;20064;-83
2021/01/17 07:27:07;;;;;;;17.55;1.90;;;;;;;6.45;66.23;100047.56;4999721;28;20527;-82
2021/01/17 07:29:36;;;;;;;16.30;2.33;;;;;;;6.33;67.63;100069.88;4999711;28;20041;-82
2021/01/17 07:32:25;;;;;;;14.30;2.15;;;;;;;6.43;66.61;100046.66;4994444;28;20038;-83
2021/01/17 07:34:53;;;;;;;14.10;1.90;;;;;;;6.37;68.23;100069.09;4993843;28;20090;-83
2021/01/17 07:37:21;;;;;;;18.58;2.72;;;;;;;6.26;68.17;100068.03;4989103;28;20070;-84
2021/01/17 07:39:56;;;;;;;11.30;1.67;;;;;;;6.22;68.27;100079.22;4981117;28;20488;-83
2021/01/17 07:42:24;;;;;;;13.57;1.80;;;;;;;6.25;68.66;100085.31;4986223;28;20053;-83
2021/01/17 07:44:55;;;;;;;17.55;1.95;;;;;;;6.14;68.58;100095.50;4989361;28;20049;-83
2021/01/17 07:47:33;;;;;;;17.75;1.90;;;;;;;6.26;67.96;100091.38;5001928;28;20382;-83
2021/01/17 07:50:00;;;;;;;17.58;2.03;;;;;;;6.16;68.45;100095.53;4984126;28;20054;-83
2021/01/17 07:52:27;;;;;;;14.13;2.35;;;;;;;6.65;66.42;100101.50;4984990;28;20051;-84
2021/01/17 07:54:54;;;;;;;12.07;1.70;;;;;;;6.43;67.19;100100.28;4999115;28;20054;-85
2021/01/17 07:57:23;;;;;;;11.98;1.60;;;;;;;6.36;66.99;100112.31;5001016;28;20060;-85
2021/01/17 07:59:50;;;;;;;16.40;1.98;;;;;;;6.15;68.78;100127.50;4981554;28;20141;-85
2021/01/17 08:02:24;;;;;;;13.90;1.70;;;;;;;6.62;66.99;100125.69;5003418;28;20049;-85
2021/01/17 08:04:51;;;;;;;14.07;1.70;;;;;;;6.62;66.94;100125.69;4997812;28;20513;-85
2021/01/17 08:07:32;;;;;;;15.15;2.72;;;;;;;7.11;65.13;100135.06;4984495;28;20157;-83
2021/01/17 08:10:00;;;;;;;14.63;1.75;;;;;;;6.43;67.14;100140.09;4967985;28;20046;-84
2021/01/17 08:12:38;;;;;;;10.65;1.80;;;;;;;6.47;67.44;100138.44;4984012;28;20565;-85
2021/01/17 08:15:18;;;;;;;15.15;2.05;;;;;;;6.53;67.74;100143.72;4998188;28;20061;-85
2021/01/17 08:17:45;;;;;;;16.35;2.10;;;;;;;6.61;67.43;100149.03;5016611;28;20159;-82
2021/01/17 08:20:29;;;;;;;14.07;2.22;;;;;;;6.47;68.00;100147.09;4985323;28;20132;-82
2021/01/17 08:23:08;;;;;;;14.50;2.28;;;;;;;6.79;66.87;100160.59;4984814;28;20133;-84
2021/01/17 08:25:49;;;;;;;8.95;1.80;;;;;;;6.33;68.96;100161.53;4980710;28;20047;-83
2021/01/17 08:28:30;;;;;;;11.23;2.05;;;;;;;6.75;67.57;100163.09;4987316;28;20422;-84
2021/01/17 08:30:56;;;;;;;16.50;2.80;;;;;;;6.61;67.77;100177.59;4965403;28;20042;-84
2021/01/17 08:33:27;;;;;;;17.55;2.40;;;;;;;6.93;66.88;100187.63;4980565;28;20125;-84
2021/01/17 08:35:54;;;;;;;16.98;2.20;;;;;;;6.62;68.18;100187.13;5000897;28;20053;-85
2021/01/17 08:38:22;;;;;;;19.52;2.42;;;;;;;6.88;67.64;100191.88;5002700;28;20175;-85
2021/01/17 08:40:54;;;;;;;15.93;2.55;;;;;;;6.80;67.42;100196.09;4968325;28;20056;-84
2021/01/17 08:43:31;;;;;;;8.20;1.65;;;;;;;6.96;66.18;100197.19;5004940;28;20500;-84
2021/01/17 08:45:58;;;;;;;9.95;2.00;;;;;;;7.14;65.25;100197.47;4981823;28;20057;-85
2021/01/17 08:48:27;;;;;;;18.02;1.92;;;;;;;7.01;66.17;100205.91;4987147;28;20054;-83
2021/01/17 08:50:56;;;;;;;14.77;2.03;;;;;;;7.33;64.51;100207.28;4984648;28;20050;-83
2021/01/17 08:53:26;;;;;;;12.98;2.00;;;;;;;7.28;64.70;100205.47;5015903;28;20520;-84
2021/01/17 08:55:59;;;;;;;9.75;2.20;;;;;;;7.15;64.90;100191.41;4987865;28;20064;-85
2021/01/17 08:58:28;;;;;;;14.27;2.22;;;;;;;7.25;63.87;100208.00;4967181;28;20510;-86
2021/01/17 09:00:57;;;;;;;8.52;1.75;;;;;;;7.19;64.37;100208.81;5003238;28;20448;-84
2021/01/17 09:03:30;;;;;;;9.98;1.92;;;;;;;7.76;62.40;100207.81;5004645;28;20065;-85
2021/01/17 09:06:12;;;;;;;17.70;2.22;;;;;;;7.31;63.59;100213.28;5004525;28;20058;-84
2021/01/17 09:08:45;;;;;;;;;;;;;;;7.66;62.69;100211.16;5005216;28;20042;-85
2021/01/17 09:11:39;;;;;;;12.68;1.92;;;;;;;8.00;61.82;100213.31;5007047;28;19932;-83
2021/01/17 09:14:23;;;;;;;13.68;2.22;;;;;;;7.69;62.44;100204.25;5001033;28;20081;-83
2021/01/17 09:16:52;;;;;;;19.05;2.85;;;;;;;7.80;62.49;100214.81;5005052;28;20049;-83
2021/01/17 09:19:21;;;;;;;12.38;2.30;;;;;;;8.07;61.87;100214.22;5004132;28;20164;-85
2021/01/17 09:21:54;;;;;;;15.13;2.10;;;;;;;7.60;63.29;100224.06;5006153;28;20065;-85
2021/01/17 09:24:26;;;;;;;18.83;2.88;;;;;;;8.35;61.42;100234.50;4977572;28;20508;-84
2021/01/17 09:26:58;;;;;;;14.90;2.13;;;;;;;8.85;60.17;100247.13;4984753;28;21993;-85
2021/01/17 09:29:24;;;;;;;19.23;1.90;;;;;;;8.69;60.82;100253.94;4983832;28;20057;-84
2021/01/17 09:32:13;;;;;;;19.58;2.25;;;;;;;9.08;58.79;100262.09;4997930;28;20132;-86
2021/01/17 09:34:51;;;;;;;16.65;2.30;;;;;;;8.65;59.52;100284.31;4986354;28;20045;-83
2021/01/17 09:37:22;;;;;;;17.67;2.42;;;;;;;9.10;59.30;100281.22;4995123;28;20056;-86
2021/01/17 09:39:51;;;;;;;12.85;3.28;;;;;;;8.91;59.56;100275.84;4982277;28;20041;-85
2021/01/17 09:42:24;;;;;;;12.70;1.95;;;;;;;9.18;58.53;100276.06;4994922;28;20414;-84
2021/01/17 09:44:55;;;;;;;20.63;2.38;;;;;;;9.56;58.44;100286.75;4991340;28;20444;-84
2021/01/17 09:47:24;;;;;;;14.95;1.95;;;;;;;9.13;58.74;100280.38;5005872;28;20041;-85
2021/01/17 09:49:52;;;;;;;17.98;2.40;;;;;;;9.48;58.32;100273.69;4976031;28;20050;-85
2021/01/17 09:52:22;;;;;;;15.18;2.90;;;;;;;9.09;59.64;100269.06;4993231;28;20127;-85
2021/01/17 09:54:51;;;;;;;17.02;2.30;;;;;;;9.34;59.29;100282.28;4996149;28;20122;-85
2021/01/17 09:57:25;;;;;;;20.70;2.40;;;;;;;8.93;60.16;100281.94;5006825;28;20065;-84
2021/01/17 09:59:55;;;;;;;15.20;1.90;;;;;;;9.40;58.50;100290.16;5015398;28;21060;-84
2021/01/17 10:02:24;;;;;;;17.13;2.53;;;;;;;9.64;58.50;100287.66;5005148;28;20058;-85
2021/01/17 10:04:51;;;;;;;20.77;1.95;;;;;;;9.17;60.29;100292.56;5003211;28;20062;-85
2021/01/17 10:07:20;;;;;;;13.90;2.17;;;;;;;9.48;59.13;100298.88;5001820;28;20105;-84
2021/01/17 10:09:53;;;;;;;13.23;2.20;;;;;;;9.12;60.13;100315.97;5005566;28;20112;-83
2021/01/17 10:12:22;;;;;;;19.58;2.45;;;;;;;9.14;60.40;100314.28;5003135;28;20449;-79
2021/01/17 10:14:49;;;;;;;44.50;3.78;;;;;;;9.44;60.06;100321.47;4997637;28;20146;-78
2021/01/17 10:17:16;;;;;;;14.55;2.33;;;;;;;9.80;58.06;100328.66;5003420;28;20042;-80
2021/01/17 10:19:46;;;;;;;18.52;2.35;;;;;;;9.78;58.96;100333.00;5001298;28;20038;-81
2021/01/17 10:22:34;;;;;;;11.75;2.13;;;;;;;9.96;58.75;100334.81;5001658;28;20409;-79
2021/01/17 10:25:02;;;;;;;19.45;2.28;;;;;;;9.22;60.27;100343.00;5006874;28;20145;-77
2021/01/17 10:27:30;;;;;;;20.35;2.45;;;;;;;9.41;60.52;100329.25;4985930;28;20046;-78
2021/01/17 10:29:56;;;;;;;13.93;2.20;;;;;;;10.34;57.46;100348.97;4946991;28;20465;-78
2021/01/17 10:32:29;;;;;;;12.32;3.25;;;;;;;11.43;54.01;100350.88;4983521;28;20677;-80
2021/01/17 10:35:02;;;;;;;12.80;2.97;;;;;;;10.63;55.65;100350.81;4976689;28;20587;-82
2021/01/17 10:37:30;;;;;;;16.38;2.30;;;;;;;11.19;53.83;100356.13;4984194;28;20045;-82
2021/01/17 10:39:57;;;;;;;15.90;2.10;;;;;;;10.33;56.14;100362.88;5000119;28;20054;-82
2021/01/17 10:42:32;;;;;;;11.38;2.38;;;;;;;10.06;56.93;100360.13;5002412;28;20148;-82
2021/01/17 10:45:08;;;;;;;14.13;2.30;;;;;;;10.19;57.02;100374.13;5002016;28;20519;-82
2021/01/17 10:48:10;;;;;;;13.00;2.65;;;;;;;10.81;55.07;100366.53;5000373;28;20500;-82
2021/01/17 10:50:49;;;;;;;10.25;1.90;;;;;;;10.43;56.59;100361.19;4998877;28;20050;-82
2021/01/17 10:53:20;;;;;;;14.80;2.65;;;;;;;10.29;56.91;100363.75;4991140;28;20058;-82
2021/01/17 10:55:52;;;;;;;13.80;2.30;;;;;;;10.30;56.26;100359.41;4986883;28;20046;-81
2021/01/17 10:58:24;;;;;;;26.20;3.20;;;;;;;11.05;55.03;100365.69;4956294;28;20069;-80
2021/01/17 11:00:56;;;;;;;18.88;2.92;;;;;;;10.32;56.34;100362.88;4999268;28;20393;-82
2021/01/17 11:03:34;;;;;;;18.50;2.30;;;;;;;9.74;57.91;100370.34;4999886;28;20045;-82
2021/01/17 11:06:09;;;;;;;12.88;2.10;;;;;;;9.66;58.09;100364.22;5002670;28;20435;-82
2021/01/17 11:08:46;;;;;;;13.55;1.85;;;;;;;10.03;57.73;100373.13;4998916;28;20050;-81
2021/01/17 11:11:15;;;;;;;20.38;2.58;;;;;;;10.78;55.08;100376.97;5016919;28;20038;-82
2021/01/17 11:13:42;;;;;;;9.75;1.95;;;;;;;11.49;53.84;100384.91;5001810;28;20057;-83
2021/01/17 11:16:09;;;;;;;16.55;2.20;;;;;;;12.11;51.47;100383.97;4986037;28;20123;-81
2021/01/17 11:18:37;;;;;;;15.98;2.58;;;;;;;12.23;51.15;100381.31;4989932;28;20085;-84
2021/01/17 11:21:05;;;;;;;14.38;2.60;;;;;;;11.86;51.44;100390.13;4998055;28;20041;-82
2021/01/17 11:23:33;;;;;;;22.92;2.63;;;;;;;11.81;51.66;100384.91;4999583;28;20060;-84
2021/01/17 11:26:07;;;;;;;14.45;2.40;;;;;;;10.44;55.69;100392.53;4977198;28;20496;-83
2021/01/17 11:28:34;;;;;;;30.40;3.20;;;;;;;10.57;56.64;100392.56;4979562;28;20055;-82
2021/01/17 11:31:15;;;;;;;19.40;2.33;;;;;;;10.78;55.23;100400.50;4984414;28;20050;-81
2021/01/17 11:33:47;;;;;;;19.45;2.97;;;;;;;10.38;56.71;100405.56;4993023;28;20448;-81
2021/01/17 11:36:17;;;;;;;17.95;2.38;;;;;;;10.37;56.83;100403.81;5000372;28;20050;-82
2021/01/17 11:38:50;;;;;;;15.40;1.98;;;;;;;10.71;55.01;100412.66;4992645;28;20078;-82
2021/01/17 11:41:20;;;;;;;22.40;3.25;;;;;;;10.34;56.90;100409.03;4966729;28;20073;-81
2021/01/17 11:43:47;;;;;;;18.83;3.30;;;;;;;10.68;57.05;100402.22;4978723;28;20053;-81
2021/01/17 11:46:15;;;;;;;15.15;2.45;;;;;;;11.09;54.64;100404.03;4993243;28;20137;-81